Hughes Springs, Texas
Current Conditions -  °F | °C
As of 3:35 AM on Tuesday 21 Oct 2014 (Local Time) from KOSA Reporting Station
Clear Clear  
Wind Chill: 55°   Ceiling: Unl
Heat Index: 55°   Visibility: 10mi
Dew Point: 55°   Wind: 0mph
Humidity: 100%   Direction: NA
Pressure: 30.06"   Gusts: NA
Location:  33°N, 94.63°W
Report Text: KOSA 210835Z AUTO 00000KT 10SM CLR 13/13 A3006 RMK AO1 T01280128
Loading
Personal Weather Stations






























Interactive Weather Map
Tropical Storm Tracking
New forecast layout! Learn more

10-Day Weather Forecast

Advertisements
Track Severe Weather on mobile